Time;durP1;ratioP1;P1;durP2;ratioP2;P2;SDS_P1;SDS_P2;PMS_P1;PMS_P2;Temp;Humidity;BMP_temperature;BMP_pressure;BME280_temperature;BME280_humidity;BME280_pressure;Samples;Min_cycle;Max_cycle;Signal;HPM_P1;HPM_P2
2022/04/19 00:01:15;;;;;;;2.20;1.43;;;;;;;19.44;53.33;99980.34;5094663;28;20174;-62
2022/04/19 00:03:41;;;;;;;2.50;1.40;;;;;;;19.45;53.36;99979.13;5094655;28;20427;-61
2022/04/19 00:06:06;;;;;;;2.80;1.43;;;;;;;19.45;53.53;99986.88;5094239;28;20165;-61
2022/04/19 00:08:32;;;;;;;2.50;1.47;;;;;;;19.44;53.44;99976.66;5094659;28;20485;-62
2022/04/19 00:10:59;;;;;;;2.90;1.47;;;;;;;19.43;53.51;99967.25;5093900;28;20213;-62
2022/04/19 00:13:24;;;;;;;3.27;1.30;;;;;;;19.44;53.88;99973.78;5094501;28;20241;-62
2022/04/19 00:15:50;;;;;;;3.90;1.50;;;;;;;19.45;53.47;99969.72;5090915;28;20558;-62
2022/04/19 00:18:15;;;;;;;2.30;1.43;;;;;;;19.45;53.71;99973.41;5094095;28;20609;-62
2022/04/19 00:20:42;;;;;;;2.93;1.60;;;;;;;19.44;53.23;99968.91;5094127;28;20550;-62
2022/04/19 00:23:17;;;;;;;2.63;1.47;;;;;;;19.44;53.67;99971.78;5077232;28;20190;-62
2022/04/19 00:25:44;;;;;;;2.10;1.20;;;;;;;19.44;53.77;99980.34;5073911;28;20936;-62
2022/04/19 00:28:10;;;;;;;2.10;1.20;;;;;;;19.44;53.57;99973.78;5076077;28;20424;-62
2022/04/19 00:30:36;;;;;;;3.27;1.83;;;;;;;19.45;53.82;99963.97;5073515;28;20413;-62
2022/04/19 00:33:01;;;;;;;2.97;1.67;;;;;;;19.45;53.74;99961.97;5073690;28;20634;-62
2022/04/19 00:35:28;;;;;;;3.10;1.53;;;;;;;19.43;53.68;99958.69;5055850;28;20203;-62
2022/04/19 00:37:53;;;;;;;1.90;1.00;;;;;;;19.44;53.39;99959.47;5072512;28;20179;-62
2022/04/19 00:40:19;;;;;;;2.73;1.50;;;;;;;19.44;53.48;99963.19;5073045;28;20428;-62
2022/04/19 00:42:44;;;;;;;2.13;1.27;;;;;;;19.43;53.40;99961.53;5073606;28;20627;-62
2022/04/19 00:45:10;;;;;;;2.33;1.30;;;;;;;19.45;53.78;99958.25;5086820;28;20262;-62
2022/04/19 00:47:38;;;;;;;3.20;1.57;;;;;;;19.45;54.24;99958.25;5082859;28;20317;-61
2022/04/19 00:50:04;;;;;;;2.30;1.60;;;;;;;19.45;53.55;99956.22;5073257;28;20172;-62
2022/04/19 00:52:34;;;;;;;2.50;1.50;;;;;;;19.44;53.79;99950.91;5084511;28;20468;-62
2022/04/19 00:54:59;;;;;;;3.20;1.30;;;;;;;19.46;54.33;99955.00;5093869;28;20299;-62
2022/04/19 00:57:25;;;;;;;2.30;1.30;;;;;;;19.44;53.62;99956.63;5093462;28;20507;-62
2022/04/19 00:59:55;;;;;;;2.67;1.57;;;;;;;19.43;53.43;99950.09;5075259;28;20479;-62
2022/04/19 01:02:21;;;;;;;2.73;1.50;;;;;;;19.43;53.95;99950.09;5093779;28;20213;-62
2022/04/19 01:04:46;;;;;;;2.17;1.33;;;;;;;19.44;53.72;99950.91;5093332;28;20463;-62
2022/04/19 01:07:12;;;;;;;3.20;2.00;;;;;;;19.43;53.39;99940.66;5092858;28;20884;-62
2022/04/19 01:09:37;;;;;;;2.87;1.40;;;;;;;19.43;53.49;99941.50;5074743;28;20185;-62
2022/04/19 01:14:48;;;;;;;1.80;1.00;;;;;;;19.42;53.71;99942.69;5093698;28;20632;-62
2022/04/19 01:17:14;;;;;;;2.50;1.60;;;;;;;19.42;53.51;99928.38;5088577;28;20424;-60
2022/04/19 01:19:40;;;;;;;3.40;1.50;;;;;;;19.40;54.01;99933.69;5054786;28;20255;-59
2022/04/19 01:22:06;;;;;;;2.73;1.20;;;;;;;19.41;53.65;99926.75;5080962;28;20450;-59
2022/04/19 01:24:32;;;;;;;2.63;1.30;;;;;;;19.41;53.82;99932.47;5093289;28;20198;-59
2022/04/19 01:26:57;;;;;;;3.60;1.47;;;;;;;19.40;53.71;99930.84;5092742;28;20185;-59
2022/04/19 01:29:23;;;;;;;1.90;1.10;;;;;;;19.42;53.68;99924.72;5092837;28;21205;-59
2022/04/19 01:31:51;;;;;;;2.20;1.30;;;;;;;19.42;53.64;99922.66;5092801;28;20240;-59
2022/04/19 01:34:16;;;;;;;2.00;1.40;;;;;;;19.41;53.79;99918.16;5058465;28;20181;-59
2022/04/19 01:36:42;;;;;;;2.50;1.30;;;;;;;19.40;54.51;99922.25;5080981;28;20421;-59
2022/04/19 01:39:09;;;;;;;2.10;1.13;;;;;;;19.40;54.32;99930.84;5072463;28;20178;-59
2022/04/19 01:41:35;;;;;;;2.70;1.60;;;;;;;19.39;53.67;99929.19;5072268;28;20171;-59
2022/04/19 01:44:00;;;;;;;2.83;1.53;;;;;;;19.44;53.91;99939.44;5070341;28;20512;-59
2022/04/19 01:46:31;;;;;;;2.90;1.40;;;;;;;19.43;53.54;99940.66;5070413;28;20528;-59
2022/04/19 01:48:57;;;;;;;2.60;1.27;;;;;;;19.41;53.82;99935.31;5070271;28;20180;-59
2022/04/19 01:51:23;;;;;;;2.83;1.37;;;;;;;19.39;54.01;99937.78;5072760;28;20448;-59
2022/04/19 01:53:51;;;;;;;2.47;1.40;;;;;;;19.40;54.17;99938.59;5090614;28;20592;-59
2022/04/19 01:56:17;;;;;;;2.60;1.33;;;;;;;19.40;53.92;99933.69;5073347;28;20270;-59
2022/04/19 01:58:42;;;;;;;2.27;1.30;;;;;;;19.41;53.80;99938.19;5092058;28;20443;-59
2022/04/19 02:01:08;;;;;;;2.10;1.17;;;;;;;19.41;53.66;99934.53;5092236;28;20630;-59
2022/04/19 02:03:34;;;;;;;2.70;1.63;;;;;;;19.40;53.84;99927.13;5092240;28;20170;-59
2022/04/19 02:06:10;;;;;;;3.47;1.10;;;;;;;19.40;54.22;99930.84;5091943;28;20630;-59
2022/04/19 02:08:36;;;;;;;2.80;1.20;;;;;;;19.39;53.64;99929.19;5092397;28;20178;-60
2022/04/19 02:11:02;;;;;;;2.43;1.30;;;;;;;19.41;53.80;99923.06;5091987;28;20516;-59
2022/04/19 02:13:27;;;;;;;2.00;1.30;;;;;;;19.41;54.09;99932.47;5088834;28;20182;-59
2022/04/19 02:15:53;;;;;;;2.90;1.13;;;;;;;19.41;54.13;99929.59;5091665;28;20170;-59
2022/04/19 02:18:19;;;;;;;1.93;1.27;;;;;;;19.41;53.71;99925.94;5091977;28;20178;-59
2022/04/19 02:20:45;;;;;;;2.37;1.30;;;;;;;19.39;53.98;99923.47;5087394;28;20610;-59
2022/04/19 02:23:13;;;;;;;2.10;1.10;;;;;;;19.38;53.84;99918.97;5089000;28;20420;-59
2022/04/19 02:25:39;;;;;;;2.20;1.10;;;;;;;19.39;53.58;99923.47;5092124;28;20798;-59
2022/04/19 02:28:06;;;;;;;2.00;1.07;;;;;;;19.40;53.82;99913.66;5091998;28;20545;-59
2022/04/19 02:30:32;;;;;;;3.00;1.30;;;;;;;19.41;53.71;99920.22;5091605;28;20178;-59
2022/04/19 02:32:58;;;;;;;1.90;1.10;;;;;;;19.41;54.04;99923.06;5092015;28;20498;-59
2022/04/19 02:35:23;;;;;;;2.50;1.40;;;;;;;19.38;54.01;99921.00;5091572;28;20170;-59
2022/04/19 02:37:52;;;;;;;2.40;1.30;;;;;;;19.38;54.09;99913.25;5091714;28;20182;-59
2022/04/19 02:40:18;;;;;;;3.73;1.30;;;;;;;19.38;53.83;99924.69;5091820;28;20177;-59
2022/04/19 02:42:44;;;;;;;2.40;1.30;;;;;;;19.39;54.13;99916.91;5091169;28;20444;-59
2022/04/19 02:45:09;;;;;;;2.30;1.33;;;;;;;19.38;54.12;99918.97;5091606;28;20428;-59
2022/04/19 02:47:35;;;;;;;2.63;1.47;;;;;;;19.39;53.74;99917.75;5074622;28;20513;-59
2022/04/19 02:50:01;;;;;;;2.07;1.30;;;;;;;19.39;53.70;99920.59;5090301;28;20637;-59
2022/04/19 02:52:26;;;;;;;2.23;1.30;;;;;;;19.38;53.85;99918.13;5091012;28;20244;-59
2022/04/19 02:54:52;;;;;;;2.60;1.60;;;;;;;19.38;53.89;99923.84;5089911;28;20427;-59
2022/04/19 02:57:18;;;;;;;1.80;1.10;;;;;;;19.37;53.89;99916.50;5091493;28;20174;-59
2022/04/19 02:59:44;;;;;;;1.80;1.00;;;;;;;19.37;53.78;99920.16;5091307;28;20267;-59
2022/04/19 03:02:09;;;;;;;1.70;1.00;;;;;;;19.38;53.76;99923.84;5091594;28;20412;-59
2022/04/19 03:04:35;;;;;;;2.70;1.47;;;;;;;19.39;54.11;99926.31;5091371;28;20178;-59
2022/04/19 03:07:01;;;;;;;2.47;1.40;;;;;;;19.38;54.18;99933.28;5091292;28;20705;-59
2022/04/19 03:09:26;;;;;;;2.83;1.30;;;;;;;19.38;54.16;99924.69;5088422;28;20181;-59
2022/04/19 03:11:52;;;;;;;3.43;1.30;;;;;;;19.38;54.11;99924.69;5091375;28;20869;-59
2022/04/19 03:14:17;;;;;;;2.73;0.93;;;;;;;19.37;53.80;99914.44;5091261;28;20174;-59
2022/04/19 03:16:43;;;;;;;2.40;1.33;;;;;;;19.37;53.78;99911.56;5091707;28;20182;-59
2022/04/19 03:19:08;;;;;;;2.40;1.30;;;;;;;19.37;53.88;99920.16;5091158;28;20181;-59
2022/04/19 03:21:33;;;;;;;2.23;1.40;;;;;;;19.36;53.90;99921.38;5087343;28;20179;-59
2022/04/19 03:29:27;;;;;;;2.33;1.20;;;;;;;19.36;54.24;99909.13;5071096;28;20401;-59
2022/04/19 03:31:53;;;;;;;2.20;1.13;;;;;;;19.38;53.90;99912.41;5054956;28;20827;-59
2022/04/19 03:34:18;;;;;;;2.20;1.20;;;;;;;19.37;54.18;99919.34;5074936;28;20634;-59
2022/04/19 03:36:45;;;;;;;2.73;1.47;;;;;;;19.36;54.14;99909.13;5073864;28;20179;-59
2022/04/19 03:39:10;;;;;;;2.00;1.10;;;;;;;19.36;53.97;99912.78;5074289;28;20178;-59
2022/04/19 03:41:36;;;;;;;2.33;1.30;;;;;;;19.37;54.17;99910.75;5084499;28;20412;-59
2022/04/19 03:44:01;;;;;;;1.93;1.27;;;;;;;19.36;53.87;99914.84;5094805;28;20189;-59
2022/04/19 03:46:27;;;;;;;1.93;1.03;;;;;;;19.37;53.76;99916.50;5095030;28;20194;-59
2022/04/19 03:48:53;;;;;;;2.47;1.30;;;;;;;19.37;53.95;99917.28;5094712;28;20653;-59
2022/04/19 03:51:19;;;;;;;2.70;1.07;;;;;;;19.36;54.08;99912.78;5095068;28;20281;-59
2022/04/19 03:53:44;;;;;;;2.00;1.10;;;;;;;19.37;53.85;99911.56;5094514;28;20845;-59
2022/04/19 03:56:10;;;;;;;2.00;1.00;;;;;;;19.35;54.09;99914.03;5094791;28;20569;-59
2022/04/19 03:58:37;;;;;;;2.13;1.10;;;;;;;19.36;53.92;99920.56;5094816;28;20197;-59
2022/04/19 04:01:02;;;;;;;2.50;1.37;;;;;;;19.36;53.87;99926.31;5060197;28;20170;-59
2022/04/19 04:03:28;;;;;;;2.50;1.17;;;;;;;19.35;54.15;99922.59;5076429;28;20417;-59
2022/04/19 04:05:54;;;;;;;2.43;1.30;;;;;;;19.36;53.92;99927.09;5094465;28;20243;-59
2022/04/19 04:08:19;;;;;;;2.20;1.20;;;;;;;19.35;53.72;99919.75;5094127;28;20602;-59
2022/04/19 04:10:44;;;;;;;1.70;1.00;;;;;;;19.34;54.28;99923.84;5093092;28;20416;-59
2022/04/19 04:13:10;;;;;;;1.93;1.10;;;;;;;19.35;53.94;99922.59;5093552;28;20224;-59
2022/04/19 04:15:35;;;;;;;2.13;0.80;;;;;;;19.36;53.72;99918.53;5094198;28;20174;-61
2022/04/19 04:18:01;;;;;;;2.03;1.20;;;;;;;19.37;54.12;99922.22;5094248;28;20182;-59
2022/04/19 04:20:27;;;;;;;1.80;0.93;;;;;;;19.38;53.74;99926.72;5059900;28;20701;-59
2022/04/19 04:22:52;;;;;;;2.63;1.33;;;;;;;19.35;53.92;99924.63;5087703;28;20174;-59
2022/04/19 04:25:18;;;;;;;2.33;1.30;;;;;;;19.35;54.08;99919.75;5089493;28;20626;-59
2022/04/19 04:27:43;;;;;;;3.30;1.10;;;;;;;19.34;53.77;99929.56;5094196;28;20186;-59
2022/04/19 04:30:09;;;;;;;1.70;1.10;;;;;;;19.36;53.76;99924.25;5093939;28;20182;-59
2022/04/19 04:32:34;;;;;;;1.73;1.03;;;;;;;19.36;54.21;99929.16;5094069;28;20596;-59
2022/04/19 04:34:59;;;;;;;1.70;1.00;;;;;;;19.37;54.17;99930.81;5093834;28;20220;-59
2022/04/19 04:37:25;;;;;;;2.30;1.10;;;;;;;19.37;53.80;99927.94;5090569;28;20178;-59
2022/04/19 04:39:50;;;;;;;2.67;1.27;;;;;;;19.36;53.73;99932.84;5093889;28;20244;-59
2022/04/19 04:42:16;;;;;;;1.70;0.90;;;;;;;19.36;53.97;99934.88;5092836;28;20302;-59
2022/04/19 04:44:41;;;;;;;2.73;1.00;;;;;;;19.35;53.81;99930.34;5092886;28;20170;-59
2022/04/19 04:49:58;;;;;;;2.20;1.20;;;;;;;19.35;53.64;99939.78;5061871;28;20194;-59
2022/04/19 04:52:24;;;;;;;2.83;1.50;;;;;;;19.34;53.85;99932.41;5093732;28;20570;-59
2022/04/19 04:54:49;;;;;;;2.40;1.37;;;;;;;19.34;53.84;99943.88;5093421;28;20625;-59
2022/04/19 04:57:15;;;;;;;3.80;1.50;;;;;;;19.35;53.88;99938.94;5093749;28;20190;-59
2022/04/19 04:59:40;;;;;;;2.07;1.30;;;;;;;19.34;54.18;99940.16;5093441;28;20190;-59
2022/04/19 05:02:06;;;;;;;2.50;1.30;;;;;;;19.34;53.99;99946.72;5093610;28;20483;-59
2022/04/19 05:04:32;;;;;;;1.90;1.30;;;;;;;19.34;53.89;99949.59;5093185;28;20180;-59
2022/04/19 05:06:58;;;;;;;3.23;1.23;;;;;;;19.35;54.05;99947.53;5092251;28;20568;-59
2022/04/19 05:09:24;;;;;;;1.70;0.97;;;;;;;19.34;53.85;99943.88;5090806;28;20432;-59
2022/04/19 05:11:52;;;;;;;2.20;1.10;;;;;;;19.36;54.11;99949.19;5093227;28;20210;-59
2022/04/19 05:14:18;;;;;;;1.73;1.00;;;;;;;19.34;53.87;99948.75;5092782;28;20600;-59
2022/04/19 05:16:44;;;;;;;2.10;1.20;;;;;;;19.34;53.85;99951.63;5093352;28;20420;-59
2022/04/19 05:19:09;;;;;;;2.67;1.20;;;;;;;19.34;53.90;99951.63;5092764;28;20627;-59
2022/04/19 05:21:37;;;;;;;2.23;1.00;;;;;;;19.34;53.87;99951.63;5089454;28;20183;-60
2022/04/19 05:24:12;;;;;;;1.90;1.10;;;;;;;19.34;53.87;99952.47;5072910;28;20415;-59
2022/04/19 05:26:38;;;;;;;2.87;1.40;;;;;;;19.34;53.94;99954.47;5072932;28;20423;-60
2022/04/19 05:29:03;;;;;;;1.80;0.90;;;;;;;19.34;53.90;99951.63;5073023;28;20429;-60
2022/04/19 05:31:29;;;;;;;2.00;1.03;;;;;;;19.33;53.91;99953.69;5072528;28;20222;-60
2022/04/19 05:33:54;;;;;;;2.07;1.00;;;;;;;19.35;53.85;99950.41;5054535;28;20190;-59
2022/04/19 05:36:19;;;;;;;1.70;0.90;;;;;;;19.34;54.14;99954.47;5054800;28;20183;-59
2022/04/19 05:38:45;;;;;;;1.93;1.10;;;;;;;19.37;53.75;99957.38;5076829;28;20174;-59
2022/04/19 05:41:10;;;;;;;1.70;0.90;;;;;;;19.35;53.81;99967.56;5092779;28;20640;-60
2022/04/19 05:43:36;;;;;;;2.10;0.93;;;;;;;19.34;54.06;99963.91;5092995;28;20209;-59
2022/04/19 05:46:02;;;;;;;2.37;1.20;;;;;;;19.35;54.03;99959.81;5092515;28;20190;-59
2022/04/19 05:48:27;;;;;;;2.13;1.27;;;;;;;19.35;53.91;99956.94;5092543;28;20454;-59
2022/04/19 05:50:53;;;;;;;1.80;1.10;;;;;;;19.36;53.73;99961.47;5092244;28;20516;-59
2022/04/19 05:53:19;;;;;;;1.97;1.10;;;;;;;19.35;53.76;99959.81;5092140;28;20197;-59
2022/04/19 05:55:44;;;;;;;2.50;1.20;;;;;;;19.36;53.88;99963.53;5090657;28;20178;-59
2022/04/19 05:58:10;;;;;;;1.90;1.03;;;;;;;19.35;53.84;99962.69;5092074;28;20774;-60
2022/04/19 06:00:35;;;;;;;2.13;1.23;;;;;;;19.36;54.13;99963.53;5092146;28;20665;-59
2022/04/19 06:05:45;;;;;;;1.90;1.20;;;;;;;19.36;54.14;99967.19;5092352;28;20204;-59
2022/04/19 06:08:10;;;;;;;1.87;1.20;;;;;;;19.36;54.00;99970.03;5092525;28;20602;-59
2022/04/19 06:10:36;;;;;;;2.10;1.30;;;;;;;19.35;54.22;99961.84;5092260;28;20219;-60
2022/04/19 06:13:01;;;;;;;2.73;1.30;;;;;;;19.36;54.00;99972.91;5092316;28;20190;-59
2022/04/19 06:15:27;;;;;;;1.60;1.00;;;;;;;19.35;54.05;99968.41;5091799;28;20193;-59
2022/04/19 06:17:52;;;;;;;2.23;1.23;;;;;;;19.36;53.97;99972.91;5089020;28;20174;-59
2022/04/19 06:20:18;;;;;;;1.67;1.00;;;;;;;19.35;53.89;99968.41;5091882;28;20175;-60
2022/04/19 06:22:44;;;;;;;1.83;1.10;;;;;;;19.34;53.83;99975.34;5081542;28;20170;-59
2022/04/19 06:25:10;;;;;;;2.33;1.10;;;;;;;19.35;54.04;99971.28;5091731;28;20185;-59
2022/04/19 06:27:35;;;;;;;2.00;1.20;;;;;;;19.36;53.89;99981.50;5092106;28;20792;-59
2022/04/19 06:30:02;;;;;;;1.57;0.90;;;;;;;19.35;53.98;99976.16;5089973;28;20182;-59
2022/04/19 06:32:27;;;;;;;2.60;1.37;;;;;;;19.35;53.85;99977.00;5072465;28;20203;-59
2022/04/19 06:34:53;;;;;;;2.73;1.43;;;;;;;19.34;54.71;99972.50;5080008;28;20481;-59
2022/04/19 06:37:20;;;;;;;2.10;1.27;;;;;;;19.34;54.04;99974.53;5091849;28;20186;-59
2022/04/19 06:39:45;;;;;;;1.87;1.13;;;;;;;19.34;54.25;99972.50;5091840;28;20175;-59
2022/04/19 06:42:11;;;;;;;2.40;1.20;;;;;;;19.35;53.95;99982.72;5091766;28;20452;-59
2022/04/19 06:44:36;;;;;;;2.13;1.10;;;;;;;19.33;54.05;99973.72;5091583;28;20182;-59
2022/04/19 06:47:02;;;;;;;2.63;1.20;;;;;;;19.34;54.26;99983.94;5090782;28;20661;-59
2022/04/19 06:49:27;;;;;;;1.93;0.90;;;;;;;19.35;54.16;99982.72;5091894;28;20610;-59
2022/04/19 06:51:54;;;;;;;2.03;1.10;;;;;;;19.34;53.88;99978.22;5091088;28;20194;-59
2022/04/19 06:54:19;;;;;;;2.30;1.03;;;;;;;19.36;54.22;99972.91;5089926;28;20170;-59
2022/04/19 06:56:45;;;;;;;1.80;0.90;;;;;;;19.35;53.87;99977.00;5088790;28;20408;-59
2022/04/19 06:59:11;;;;;;;2.50;1.30;;;;;;;19.35;54.09;99973.28;5089056;28;20167;-60
2022/04/19 07:01:39;;;;;;;1.90;1.10;;;;;;;19.33;54.15;99978.59;5090000;28;20170;-60
2022/04/19 07:04:05;;;;;;;2.50;1.10;;;;;;;19.35;54.01;99977.00;5089946;28;20852;-59
2022/04/19 07:06:30;;;;;;;1.90;1.10;;;;;;;19.35;54.25;99971.28;5091279;28;20472;-59
2022/04/19 07:08:56;;;;;;;1.70;0.90;;;;;;;19.35;54.02;99979.03;5093722;28;20162;-59
2022/04/19 07:11:21;;;;;;;1.90;1.03;;;;;;;19.35;54.17;99982.72;5090964;28;20239;-59
2022/04/19 07:13:46;;;;;;;2.90;1.30;;;;;;;19.34;53.87;99980.25;5094183;28;20174;-59
2022/04/19 07:16:12;;;;;;;2.17;1.10;;;;;;;19.36;53.73;99977.81;5093581;28;20159;-59
2022/04/19 07:18:37;;;;;;;1.90;1.00;;;;;;;19.35;53.93;99981.88;5093436;28;20220;-59
2022/04/19 07:26:45;;;;;;;2.00;1.00;;;;;;;19.36;53.94;99977.81;5074498;28;20583;-59
2022/04/19 07:29:11;;;;;;;1.60;1.00;;;;;;;19.35;54.04;99984.75;5075367;28;20450;-59
2022/04/19 07:31:41;;;;;;;1.83;1.00;;;;;;;19.34;54.04;99992.53;5074754;28;20452;-59
2022/04/19 07:34:06;;;;;;;2.80;1.33;;;;;;;19.34;53.93;99972.50;5075262;28;20947;-59
2022/04/19 07:36:35;;;;;;;2.20;1.10;;;;;;;19.35;54.15;99977.00;5073582;28;20452;-59
2022/04/19 07:39:04;;;;;;;2.13;1.20;;;;;;;19.33;53.98;99978.59;5075070;28;20553;-59
2022/04/19 07:41:30;;;;;;;13.17;1.53;;;;;;;19.35;53.95;99977.00;5075064;28;20742;-59
2022/04/19 07:43:55;;;;;;;1.90;1.10;;;;;;;19.35;54.48;99974.13;5075096;28;20527;-59
2022/04/19 07:46:21;;;;;;;2.53;1.10;;;;;;;19.37;54.08;99970.88;5074486;28;20425;-59
2022/04/19 07:48:47;;;;;;;1.70;1.00;;;;;;;19.37;54.00;99965.97;5059291;28;20182;-59
2022/04/19 07:51:13;;;;;;;1.93;1.07;;;;;;;19.37;54.59;99965.97;5075663;28;20708;-59
2022/04/19 07:53:39;;;;;;;4.70;1.00;;;;;;;19.37;53.90;99965.16;5095077;28;20419;-59
2022/04/19 07:56:04;;;;;;;1.90;1.10;;;;;;;19.37;54.17;99968.00;5094648;28;20644;-59
2022/04/19 07:58:30;;;;;;;2.80;1.30;;;;;;;19.36;53.75;99966.38;5094631;28;20170;-59
2022/04/19 08:00:55;;;;;;;1.90;1.10;;;;;;;19.37;54.44;99968.00;5092589;28;20174;-59
2022/04/19 08:03:21;;;;;;;2.00;1.20;;;;;;;19.37;54.21;99962.28;5092831;28;20174;-59
2022/04/19 08:05:47;;;;;;;2.13;1.20;;;;;;;19.36;53.94;99963.53;5093414;28;20178;-59
2022/04/19 08:08:12;;;;;;;1.60;1.03;;;;;;;19.37;54.03;99965.97;5093481;28;20693;-59
2022/04/19 08:10:38;;;;;;;2.20;1.30;;;;;;;19.36;54.13;99969.25;5093573;28;20536;-59
2022/04/19 08:13:06;;;;;;;2.03;1.40;;;;;;;19.36;54.25;99964.31;5090306;28;20213;-59
2022/04/19 08:15:32;;;;;;;2.03;1.13;;;;;;;19.38;54.03;99969.66;5094017;28;20174;-59
2022/04/19 08:17:57;;;;;;;2.60;1.07;;;;;;;19.35;54.51;99968.41;5094128;28;20504;-59
2022/04/19 08:20:24;;;;;;;2.03;1.03;;;;;;;19.36;54.13;99960.66;5094249;28;20196;-59
2022/04/19 08:22:49;;;;;;;2.00;1.20;;;;;;;19.36;53.95;99955.72;5078584;28;20170;-59
2022/04/19 08:25:15;;;;;;;1.80;0.90;;;;;;;19.36;54.51;99957.78;5084075;28;20424;-59
2022/04/19 08:27:42;;;;;;;3.10;1.70;;;;;;;19.36;54.27;99954.94;5094330;28;20181;-59
2022/04/19 08:30:08;;;;;;;1.63;0.90;;;;;;;19.35;54.71;99954.09;5093839;28;20271;-59
2022/04/19 08:32:34;;;;;;;2.17;1.37;;;;;;;19.34;54.31;99943.03;5085895;28;20469;-60
2022/04/19 08:34:59;;;;;;;2.10;1.17;;;;;;;19.32;54.19;99949.16;5076256;28;20426;-59
2022/04/19 08:37:32;;;;;;;2.20;1.13;;;;;;;19.32;53.79;99949.16;5073870;28;20180;-59
2022/04/19 08:39:57;;;;;;;2.20;1.20;;;;;;;19.32;54.20;99946.28;5073713;28;20175;-59
2022/04/19 08:42:23;;;;;;;2.00;1.10;;;;;;;19.32;54.77;99939.75;5073691;28;20425;-59
2022/04/19 08:44:48;;;;;;;2.37;1.10;;;;;;;19.31;54.03;99936.06;5073567;28;20631;-59
2022/04/19 08:47:14;;;;;;;1.70;1.00;;;;;;;19.31;54.75;99941.78;5072289;28;20553;-59
2022/04/19 08:49:40;;;;;;;1.90;1.00;;;;;;;19.30;54.20;99945.88;5076537;28;20178;-62
2022/04/19 08:52:05;;;;;;;2.30;1.40;;;;;;;19.30;54.14;99933.59;5075308;28;20190;-62
2022/04/19 08:57:30;;;;;;;2.20;1.00;;;;;;;19.31;54.26;99936.06;5078262;28;20197;-61
2022/04/19 08:59:56;;;;;;;2.03;1.00;;;;;;;19.31;54.09;99938.91;5093567;28;20762;-61
2022/04/19 09:02:24;;;;;;;1.97;1.20;;;;;;;19.31;54.22;99941.78;5093900;28;20434;-61
2022/04/19 09:04:50;;;;;;;2.10;1.20;;;;;;;19.32;54.17;99936.91;5093893;28;20607;-61
2022/04/19 09:07:16;;;;;;;1.90;1.00;;;;;;;19.31;54.29;99930.34;5093188;28;20610;-61
2022/04/19 09:09:41;;;;;;;2.27;1.30;;;;;;;19.30;54.19;99928.69;5092343;28;20417;-61
2022/04/19 09:12:08;;;;;;;2.13;1.23;;;;;;;19.32;54.47;99922.59;5090343;28;20444;-61
2022/04/19 09:14:33;;;;;;;1.90;0.90;;;;;;;19.30;54.27;99922.13;5093947;28;20178;-62
2022/04/19 09:17:08;;;;;;;1.90;1.00;;;;;;;19.29;54.09;99929.91;5075330;28;20435;-62
2022/04/19 09:19:33;;;;;;;1.53;0.77;;;;;;;19.30;54.25;99925.84;5093444;28;20170;-61
2022/04/19 09:21:59;;;;;;;1.90;1.13;;;;;;;19.31;54.29;99921.75;5092593;28;20565;-62
2022/04/19 09:24:25;;;;;;;1.80;1.10;;;;;;;19.28;54.42;99916.84;5058827;28;20193;-61
2022/04/19 09:26:50;;;;;;;2.40;1.20;;;;;;;19.30;54.38;99916.41;5093404;28;20178;-61
2022/04/19 09:29:26;;;;;;;2.37;1.23;;;;;;;19.31;54.40;99912.34;5091414;28;20903;-61
2022/04/19 09:31:57;;;;;;;1.93;1.00;;;;;;;19.29;54.47;99909.03;5074879;28;20213;-61
2022/04/19 09:34:37;;;;;;;2.60;1.10;;;;;;;19.30;54.23;99905.78;5093163;28;20408;-62
2022/04/19 09:37:13;;;;;;;1.87;1.03;;;;;;;19.30;54.31;99911.53;5092967;28;20879;-62
2022/04/19 09:39:39;;;;;;;2.20;1.37;;;;;;;19.29;54.01;99900.47;5093356;28;20829;-61
2022/04/19 09:42:05;;;;;;;1.90;1.10;;;;;;;19.29;54.16;99903.31;5092680;28;20442;-61
2022/04/19 09:44:42;;;;;;;1.80;1.00;;;;;;;19.28;54.34;99896.78;5092789;28;20420;-61
2022/04/19 09:47:11;;;;;;;2.33;1.17;;;;;;;19.29;54.58;99895.56;5075785;28;20448;-61
2022/04/19 09:49:51;;;;;;;1.80;0.90;;;;;;;19.27;54.28;99889.41;5078253;28;20469;-62
2022/04/19 09:52:22;;;;;;;1.63;0.80;;;;;;;19.29;54.33;99886.16;5088403;28;20463;-62
2022/04/19 09:55:00;;;;;;;2.07;1.10;;;;;;;19.28;54.28;99879.63;5070485;28;20421;-62
2022/04/19 09:57:27;;;;;;;2.20;1.03;;;;;;;19.28;54.00;99885.34;5070143;28;21004;-62
2022/04/19 09:59:53;;;;;;;1.60;0.93;;;;;;;19.30;54.31;99876.34;5073652;28;20436;-62
2022/04/19 10:10:30;;;;;;;1.90;1.03;;;;;;;19.29;54.05;99869.81;5072056;28;20478;-62
2022/04/19 10:12:56;;;;;;;2.03;1.17;;;;;;;19.28;54.23;99865.31;5039794;28;20468;-62
2022/04/19 10:15:22;;;;;;;2.10;1.07;;;;;;;19.29;54.20;99866.94;5071887;28;20201;-61
2022/04/19 10:17:48;;;;;;;1.70;0.97;;;;;;;19.29;54.50;99864.09;5086315;28;20405;-62
2022/04/19 10:20:14;;;;;;;1.70;1.00;;;;;;;19.30;54.04;99857.13;5072846;28;20166;-61
2022/04/19 10:22:48;;;;;;;2.13;1.20;;;;;;;19.29;54.33;99858.38;5060758;28;20216;-62
2022/04/19 10:25:14;;;;;;;1.97;1.20;;;;;;;19.28;54.09;99856.72;5072005;28;20415;-62
2022/04/19 10:27:39;;;;;;;1.80;1.00;;;;;;;19.30;54.17;99862.03;5063651;28;20416;-62
2022/04/19 10:30:06;;;;;;;1.73;0.83;;;;;;;19.29;54.04;99851.81;5069773;28;20495;-62
2022/04/19 10:32:33;;;;;;;2.20;1.20;;;;;;;19.31;54.03;99850.19;5070012;28;20573;-62
2022/04/19 10:35:09;;;;;;;1.93;0.97;;;;;;;19.32;54.08;99851.03;5069952;28;20918;-62
2022/04/19 10:37:34;;;;;;;2.13;1.10;;;;;;;19.30;54.31;99851.41;5072065;28;20421;-62
2022/04/19 10:40:00;;;;;;;2.17;1.20;;;;;;;19.30;54.61;99854.28;5071544;28;20428;-62
2022/04/19 10:42:30;;;;;;;2.80;1.27;;;;;;;19.29;54.27;99848.94;5076799;28;20171;-62
2022/04/19 10:44:56;;;;;;;2.17;1.10;;;;;;;19.30;54.30;99844.84;5090668;28;20662;-62
2022/04/19 10:47:23;;;;;;;1.90;1.07;;;;;;;19.29;54.10;99846.91;5090505;28;20432;-61
2022/04/19 10:50:01;;;;;;;2.60;1.20;;;;;;;19.29;54.20;99841.19;5091397;28;20182;-62
2022/04/19 10:52:36;;;;;;;1.63;0.90;;;;;;;19.32;54.11;99833.84;5091768;28;20466;-62
2022/04/19 10:55:02;;;;;;;2.87;1.40;;;;;;;19.28;54.25;99836.69;5091761;28;20424;-63
2022/04/19 11:00:54;;;;;;;2.57;1.00;;;;;;;19.31;54.21;99838.75;5076368;28;20507;-62
2022/04/19 11:03:40;;;;;;;2.47;1.20;;;;;;;19.31;54.36;99830.16;5091836;28;20666;-62
2022/04/19 11:06:09;;;;;;;2.13;1.20;;;;;;;19.32;54.24;99816.69;5091227;28;20429;-62
2022/04/19 11:08:36;;;;;;;3.90;1.30;;;;;;;19.32;54.08;99813.81;5089286;28;21020;-62
2022/04/19 11:11:02;;;;;;;2.00;0.93;;;;;;;19.31;54.17;99804.38;5090948;28;20420;-62
2022/04/19 11:13:38;;;;;;;1.83;0.93;;;;;;;19.32;53.99;99810.94;5091368;28;20483;-62
2022/04/19 11:16:08;;;;;;;1.93;1.10;;;;;;;19.34;54.14;99802.78;5091431;28;20182;-62
2022/04/19 11:18:36;;;;;;;1.77;0.83;;;;;;;19.33;54.04;99809.72;5086272;28;20907;-62
2022/04/19 11:21:11;;;;;;;2.50;1.17;;;;;;;19.34;54.22;99805.63;5090348;28;20427;-62
2022/04/19 11:23:43;;;;;;;2.03;1.17;;;;;;;19.34;54.29;99806.47;5071580;28;20398;-61
2022/04/19 11:26:33;;;;;;;2.07;1.03;;;;;;;19.36;54.08;99800.34;5071596;28;20417;-62
2022/04/19 11:29:08;;;;;;;2.17;1.23;;;;;;;19.33;53.79;99793.38;5071015;28;20425;-62
2022/04/19 11:31:33;;;;;;;2.07;1.13;;;;;;;19.36;54.14;99797.50;5071367;28;20479;-63
2022/04/19 11:33:59;;;;;;;2.53;0.90;;;;;;;19.35;53.99;99792.97;5071142;28;20783;-62
2022/04/19 11:36:24;;;;;;;5.03;1.50;;;;;;;19.35;54.14;99793.78;5071214;28;20167;-62
2022/04/19 11:38:50;;;;;;;1.87;1.00;;;;;;;19.37;54.23;99796.25;5069542;28;20194;-62
2022/04/19 11:46:56;;;;;;;1.80;0.87;;;;;;;19.40;53.97;99784.84;5071500;28;20436;-62
2022/04/19 11:49:22;;;;;;;1.80;0.93;;;;;;;19.39;54.10;99776.63;5070741;28;20428;-62
2022/04/19 11:51:52;;;;;;;2.33;1.13;;;;;;;19.40;53.79;99779.09;5077319;28;20823;-61
2022/04/19 11:54:21;;;;;;;1.90;1.23;;;;;;;19.42;53.69;99775.84;5094893;28;20562;-62
2022/04/19 11:57:06;;;;;;;1.87;1.00;;;;;;;19.43;53.88;99781.19;5095348;28;20497;-62
2022/04/19 11:59:33;;;;;;;2.27;1.40;;;;;;;19.44;53.75;99779.97;5094556;28;20493;-62
2022/04/19 12:01:58;;;;;;;1.90;0.90;;;;;;;19.43;53.75;99777.47;5091607;28;20419;-62
2022/04/19 12:04:25;;;;;;;1.50;0.80;;;;;;;19.45;53.57;99773.00;5094821;28;20421;-61
2022/04/19 12:06:56;;;;;;;3.57;1.00;;;;;;;19.45;53.81;99775.03;5091025;28;20275;-62
2022/04/19 12:09:22;;;;;;;1.70;1.00;;;;;;;19.43;53.82;99766.03;5094452;28;20421;-62
2022/04/19 12:11:48;;;;;;;2.33;1.13;;;;;;;19.44;53.69;99768.50;5094833;28;20455;-62